createdAt,value
2022-09-01T00:00:34.106Z,100446.59
2022-09-01T00:03:15.596Z,100430.47
2022-09-01T00:08:26.626Z,100441.81
2022-09-01T00:11:00.298Z,100441.69
2022-09-01T00:13:45.106Z,100421.59
2022-09-01T00:16:15.652Z,100428.84
2022-09-01T00:18:39.456Z,100430.44
2022-09-01T00:21:13.023Z,100444.00
2022-09-01T00:24:05.919Z,100427.13
2022-09-01T00:26:56.887Z,100423.34
2022-09-01T00:29:33.630Z,100441.56
2022-09-01T00:32:37.027Z,100426.06
2022-09-01T00:35:37.170Z,100430.22
2022-09-01T00:42:15.016Z,100428.00
2022-09-01T00:44:26.144Z,100427.63
2022-09-01T00:52:36.005Z,100421.91
2022-09-01T00:55:14.722Z,100411.88
2022-09-01T00:58:29.092Z,100405.88
2022-09-01T01:01:06.672Z,100420.41
2022-09-01T01:08:00.591Z,100432.28
2022-09-01T01:10:26.624Z,100433.75
2022-09-01T01:20:38.363Z,100407.22
2022-09-01T01:23:42.594Z,100426.38
2022-09-01T01:26:17.003Z,100435.34
2022-09-01T01:32:15.714Z,100400.22
2022-09-01T01:35:12.960Z,100409.84
2022-09-01T01:42:07.921Z,100425.91
2022-09-01T02:00:08.601Z,100425.16
2022-09-01T02:02:32.075Z,100415.16
2022-09-01T02:05:12.526Z,100416.84
2022-09-01T02:07:39.036Z,100416.13
2022-09-01T02:10:49.207Z,100424.69
2022-09-01T02:13:31.303Z,100390.31
2022-09-01T02:16:29.238Z,100421.00
2022-09-01T02:19:01.113Z,100394.22
2022-09-01T02:21:45.603Z,100414.16
2022-09-01T02:24:00.455Z,100418.91
2022-09-01T02:26:22.300Z,100416.59
2022-09-01T02:28:25.679Z,100414.22
2022-09-01T02:30:50.413Z,100399.31
2022-09-01T02:33:26.207Z,100421.66
2022-09-01T02:35:55.118Z,100399.03
2022-09-01T02:38:46.680Z,100386.19
2022-09-01T02:41:15.037Z,100407.69
2022-09-01T02:43:33.995Z,100414.06
2022-09-01T02:48:52.496Z,100402.31
2022-09-01T02:51:36.017Z,100421.66
2022-09-01T03:03:35.933Z,100419.44
2022-09-01T03:09:33.737Z,100413.94
2022-09-01T03:13:10.381Z,100384.19
2022-09-01T03:15:47.881Z,100402.78
2022-09-01T03:18:54.118Z,100409.53
2022-09-01T03:21:38.328Z,100412.31
2022-09-01T03:36:48.574Z,100405.72
2022-09-01T03:39:06.771Z,100401.56
2022-09-01T03:41:48.446Z,100412.47
2022-09-01T03:44:25.912Z,100405.47
2022-09-01T03:47:03.746Z,100390.56
2022-09-01T03:49:35.411Z,100405.19
2022-09-01T03:52:27.790Z,100383.78
2022-09-01T03:54:56.929Z,100414.53
2022-09-01T03:57:56.959Z,100411.59
2022-09-01T04:01:14.600Z,100402.50
2022-09-01T04:03:44.004Z,100404.72
2022-09-01T04:06:15.724Z,100430.38
2022-09-01T04:16:44.846Z,100417.88
2022-09-01T04:19:09.162Z,100393.69
2022-09-01T04:21:25.173Z,100423.44
2022-09-01T04:26:36.047Z,100396.41
2022-09-01T04:28:54.336Z,100410.97
2022-09-01T04:31:07.555Z,100403.03
2022-09-01T04:33:19.515Z,100424.81
2022-09-01T04:38:52.647Z,100400.34
2022-09-01T04:41:16.606Z,100418.22
2022-09-01T04:43:43.986Z,100411.13
2022-09-01T04:46:18.443Z,100412.47
2022-09-01T04:48:52.494Z,100428.59
2022-09-01T04:51:32.782Z,100421.19
2022-09-01T04:54:23.724Z,100413.59
2022-09-01T04:59:15.279Z,100420.00
2022-09-01T05:01:45.689Z,100421.72
2022-09-01T05:04:50.873Z,100426.59
2022-09-01T05:10:09.111Z,100427.59
2022-09-01T05:12:41.177Z,100424.19
2022-09-01T05:14:48.946Z,100418.91
2022-09-01T05:17:07.738Z,100430.13
2022-09-01T05:19:12.964Z,100437.34
2022-09-01T05:21:31.260Z,100426.97
2022-09-01T05:23:54.034Z,100419.03
2022-09-01T05:26:38.844Z,100446.94
2022-09-01T05:29:37.100Z,100436.66
2022-09-01T05:32:03.265Z,100427.59
2022-09-01T05:34:29.333Z,100448.53
2022-09-01T05:49:02.325Z,100430.81
2022-09-01T05:51:50.423Z,100418.38
2022-09-01T05:55:02.985Z,100437.50
2022-09-01T05:59:29.766Z,100413.13
2022-09-01T06:08:31.936Z,100460.31
2022-09-01T06:10:50.409Z,100450.38
2022-09-01T06:13:15.039Z,100457.72
2022-09-01T06:15:39.881Z,100428.63
2022-09-01T06:18:29.471Z,100443.06
2022-09-01T06:20:58.971Z,100447.88
2022-09-01T06:31:44.522Z,100451.81
2022-09-01T06:41:57.533Z,100465.63
2022-09-01T06:44:14.663Z,100453.44
2022-09-01T06:46:31.086Z,100468.38
2022-09-01T06:48:42.628Z,100473.38
2022-09-01T06:53:37.376Z,100472.31
2022-09-01T06:55:55.174Z,100479.53
2022-09-01T06:58:13.995Z,100480.41
2022-09-01T07:00:27.154Z,100477.88
2022-09-01T07:02:34.258Z,100478.56
2022-09-01T07:04:56.082Z,100478.88
2022-09-01T07:07:54.400Z,100473.59
2022-09-01T07:09:49.899Z,100472.53
2022-09-01T07:12:36.859Z,100476.34
2022-09-01T07:17:27.377Z,100481.50
2022-09-01T07:19:52.019Z,100482.47
2022-09-01T07:22:08.184Z,100473.34
2022-09-01T07:24:26.603Z,100479.31
2022-09-01T07:26:57.424Z,100481.13
2022-09-01T07:29:20.424Z,100485.41
2022-09-01T07:51:38.066Z,100489.50
2022-09-01T08:24:03.895Z,100497.91
2022-09-01T08:31:59.572Z,100495.44
2022-09-01T08:58:30.970Z,100479.28
2022-09-01T09:20:38.276Z,100502.78
2022-09-01T09:35:53.154Z,100504.16
2022-09-01T09:38:46.941Z,100501.22
2022-09-01T09:45:42.880Z,100500.88
2022-09-01T09:49:09.095Z,100493.09
2022-09-01T09:52:34.480Z,100478.00
2022-09-01T10:03:32.666Z,100488.19
2022-09-01T10:11:35.816Z,100489.47
2022-09-01T10:27:14.802Z,100485.47
2022-09-01T10:30:21.973Z,100485.84
2022-09-01T10:33:23.162Z,100486.06
2022-09-01T11:29:58.326Z,100479.13
2022-09-01T11:39:15.921Z,100462.44
2022-09-01T11:43:29.547Z,100481.13
2022-09-01T11:54:36.783Z,100479.22
2022-09-01T12:27:40.986Z,100456.41
2022-09-01T12:34:43.337Z,100451.41
2022-09-01T12:47:12.763Z,100442.69
2022-09-01T13:16:45.467Z,100439.31
2022-09-01T13:19:11.333Z,100431.72
2022-09-01T13:21:19.547Z,100426.25
2022-09-01T14:06:47.990Z,100413.16
2022-09-01T14:08:57.639Z,100422.22
2022-09-01T14:16:30.209Z,100420.66
2022-09-01T14:20:05.218Z,100407.28
2022-09-01T14:46:32.003Z,100411.56
2022-09-01T14:54:12.315Z,100405.81
2022-09-01T15:01:58.754Z,100399.47
2022-09-01T15:05:07.901Z,100376.13
2022-09-01T15:08:22.395Z,100373.97
2022-09-01T15:14:32.970Z,100394.34
2022-09-01T15:17:21.582Z,100381.53
2022-09-01T15:27:11.810Z,100408.75
2022-09-01T15:29:51.828Z,100387.56
2022-09-01T15:35:16.342Z,100380.38
2022-09-01T15:38:21.491Z,100398.66
2022-09-01T15:41:53.243Z,100382.22
2022-09-01T15:52:54.577Z,100403.06
2022-09-01T16:11:37.900Z,100397.13
2022-09-01T16:14:24.826Z,100386.72
2022-09-01T16:57:12.000Z,100406.75
2022-09-01T16:59:35.066Z,100400.81
2022-09-01T17:02:02.800Z,100408.31
2022-09-01T17:04:56.200Z,100398.06
2022-09-01T17:07:45.682Z,100396.22
2022-09-01T17:10:26.083Z,100410.41
2022-09-01T17:12:52.046Z,100419.34
2022-09-01T17:15:08.014Z,100410.66
2022-09-01T17:17:21.215Z,100412.91
2022-09-01T17:19:26.737Z,100404.91
2022-09-01T17:21:46.021Z,100410.59
2022-09-01T17:24:20.113Z,100422.66
2022-09-01T17:26:30.792Z,100424.16
2022-09-01T17:28:46.028Z,100411.34
2022-09-01T17:31:21.255Z,100417.00
2022-09-01T17:34:01.342Z,100424.38
2022-09-01T17:36:49.045Z,100430.59
2022-09-01T17:39:07.014Z,100424.88
2022-09-01T17:41:26.492Z,100426.66
2022-09-01T17:44:12.768Z,100434.16
2022-09-01T17:46:36.430Z,100442.66
2022-09-01T17:48:41.174Z,100442.91
2022-09-01T17:51:23.686Z,100443.31
2022-09-01T17:54:01.382Z,100440.44
2022-09-01T17:56:21.567Z,100445.94
2022-09-01T17:58:42.015Z,100453.31
2022-09-01T18:01:05.623Z,100456.28
2022-09-01T18:03:41.793Z,100460.06
2022-09-01T18:06:05.784Z,100455.81
2022-09-01T18:08:31.988Z,100448.38
2022-09-01T18:10:50.346Z,100465.13
2022-09-01T18:13:05.031Z,100457.44
2022-09-01T18:15:18.007Z,100452.19
2022-09-01T18:17:45.861Z,100464.28
2022-09-01T18:20:08.538Z,100455.59
2022-09-01T18:22:19.992Z,100468.56
2022-09-01T18:24:36.022Z,100469.53
2022-09-01T18:26:45.931Z,100468.97
2022-09-01T18:28:58.128Z,100470.78
2022-09-01T18:31:32.189Z,100476.44
2022-09-01T18:33:50.893Z,100475.22
2022-09-01T18:36:31.975Z,100475.00
2022-09-01T18:38:50.619Z,100468.66
2022-09-01T18:41:20.123Z,100477.75
2022-09-01T18:43:46.136Z,100464.28
2022-09-01T18:46:21.810Z,100477.03
2022-09-01T18:48:44.958Z,100470.31
2022-09-01T18:51:16.110Z,100454.19
2022-09-01T18:53:40.503Z,100481.06
2022-09-01T18:56:26.665Z,100483.88
2022-09-01T18:59:09.992Z,100484.16
2022-09-01T19:01:38.940Z,100457.00
2022-09-01T19:04:38.204Z,100482.69
2022-09-01T19:07:04.944Z,100465.59
2022-09-01T19:09:30.038Z,100489.28
2022-09-01T19:12:06.077Z,100493.81
2022-09-01T19:14:48.838Z,100481.50
2022-09-01T19:17:08.915Z,100491.31
2022-09-01T19:19:20.022Z,100498.91
2022-09-01T19:21:28.997Z,100473.72
2022-09-01T19:24:09.145Z,100486.53
2022-09-01T19:26:21.888Z,100488.28
2022-09-01T19:28:45.139Z,100492.47
2022-09-01T19:31:24.195Z,100500.53
2022-09-01T19:33:39.821Z,100485.66
2022-09-01T19:35:47.240Z,100475.88
2022-09-01T19:37:55.634Z,100469.16
2022-09-01T19:40:05.327Z,100474.66
2022-09-01T19:42:29.272Z,100491.19
2022-09-01T19:44:56.276Z,100475.88
2022-09-01T19:47:27.072Z,100488.84
2022-09-01T19:50:05.075Z,100504.28
2022-09-01T19:52:19.157Z,100499.13
2022-09-01T19:59:03.006Z,100485.16
2022-09-01T20:01:12.960Z,100497.63
2022-09-01T20:03:45.017Z,100492.38
2022-09-01T20:06:11.160Z,100495.09
2022-09-01T20:08:27.250Z,100491.50
2022-09-01T20:10:56.106Z,100499.72
2022-09-01T20:13:34.443Z,100505.72
2022-09-01T20:16:19.265Z,100488.34
2022-09-01T20:18:34.336Z,100501.09
2022-09-01T20:20:47.239Z,100500.97
2022-09-01T20:23:11.170Z,100504.00
2022-09-01T20:25:23.688Z,100508.66
2022-09-01T20:27:44.079Z,100508.66
2022-09-01T20:30:28.424Z,100481.16
2022-09-01T20:33:15.241Z,100498.38
2022-09-01T20:35:37.533Z,100509.25
2022-09-01T20:38:15.008Z,100505.25
2022-09-01T20:40:41.102Z,100514.78
2022-09-01T20:43:21.186Z,100509.50
2022-09-01T20:45:31.022Z,100506.94
2022-09-01T20:47:34.782Z,100511.34
2022-09-01T20:49:41.026Z,100499.34
2022-09-01T20:52:04.595Z,100506.47
2022-09-01T20:54:34.064Z,100500.22
2022-09-01T20:57:08.635Z,100513.19
2022-09-01T20:59:12.226Z,100513.06
2022-09-01T21:01:47.037Z,100512.22
2022-09-01T21:04:12.040Z,100512.72
2022-09-01T21:06:38.188Z,100506.09
2022-09-01T21:09:09.221Z,100508.44
2022-09-01T21:11:32.799Z,100520.06
2022-09-01T21:14:05.365Z,100510.00
2022-09-01T21:16:18.066Z,100518.69
2022-09-01T21:18:48.032Z,100521.38
2022-09-01T21:21:12.282Z,100511.94
2022-09-01T21:23:16.180Z,100514.56
2022-09-01T21:25:23.358Z,100520.09
2022-09-01T21:27:36.895Z,100515.19
2022-09-01T21:30:03.690Z,100519.47
2022-09-01T21:32:15.448Z,100513.41
2022-09-01T21:34:23.417Z,100525.91
2022-09-01T21:36:38.572Z,100525.63
2022-09-01T21:38:45.325Z,100530.00
2022-09-01T21:41:32.790Z,100526.78
2022-09-01T21:43:47.006Z,100509.34
2022-09-01T21:45:53.365Z,100523.53
2022-09-01T21:48:08.672Z,100522.69
2022-09-01T21:50:34.413Z,100525.69
2022-09-01T21:52:57.222Z,100521.19
2022-09-01T21:55:06.361Z,100529.25
2022-09-01T21:57:11.458Z,100523.25
2022-09-01T21:59:16.600Z,100514.22
2022-09-01T22:01:20.865Z,100506.41
2022-09-01T22:05:47.036Z,100492.72
2022-09-01T22:07:50.665Z,100501.31
2022-09-01T22:09:54.466Z,100514.06
2022-09-01T22:11:58.903Z,100517.81
2022-09-01T22:14:02.387Z,100517.59
2022-09-01T22:16:06.810Z,100516.09
2022-09-01T22:18:12.119Z,100515.13
2022-09-01T22:20:20.455Z,100517.59
2022-09-01T22:22:24.766Z,100509.00
2022-09-01T22:24:29.169Z,100518.78
2022-09-01T22:26:34.603Z,100513.53
2022-09-01T22:28:38.194Z,100520.75
2022-09-01T22:30:51.247Z,100519.88
2022-09-01T22:32:54.738Z,100514.72
2022-09-01T22:34:58.222Z,100499.81
2022-09-01T22:37:06.218Z,100506.69
2022-09-01T22:39:17.897Z,100503.25
2022-09-01T22:41:23.878Z,100497.03
2022-09-01T22:43:29.398Z,100495.41
2022-09-01T22:46:04.833Z,100495.41
2022-09-01T22:48:23.289Z,100500.56
2022-09-01T22:50:30.053Z,100502.41
2022-09-01T22:52:33.944Z,100502.63
2022-09-01T22:54:37.966Z,100493.81
2022-09-01T22:56:43.000Z,100507.13
2022-09-01T22:58:49.558Z,100500.16
2022-09-01T23:00:56.885Z,100501.25
2022-09-01T23:03:02.279Z,100503.31
2022-09-01T23:05:32.486Z,100487.78
2022-09-01T23:07:37.130Z,100493.03
2022-09-01T23:09:48.312Z,100497.31
2022-09-01T23:12:05.746Z,100502.69
2022-09-01T23:14:23.760Z,100496.78
2022-09-01T23:16:27.702Z,100500.91
2022-09-01T23:18:37.418Z,100492.31
2022-09-01T23:20:42.024Z,100502.59
2022-09-01T23:22:47.168Z,100495.53
2022-09-01T23:24:51.274Z,100495.00
2022-09-01T23:26:55.891Z,100498.53
2022-09-01T23:29:01.740Z,100497.69
2022-09-01T23:31:10.366Z,100478.09
2022-09-01T23:33:15.062Z,100493.41
2022-09-01T23:35:18.988Z,100490.09
2022-09-01T23:37:23.197Z,100490.09
2022-09-01T23:39:27.323Z,100478.97
2022-09-01T23:41:38.174Z,100488.72
2022-09-01T23:43:42.039Z,100492.47
2022-09-01T23:45:54.016Z,100479.28
2022-09-01T23:47:58.180Z,100487.56
2022-09-01T23:50:05.152Z,100487.78
2022-09-01T23:52:30.673Z,100472.44
2022-09-01T23:55:07.338Z,100488.03
2022-09-01T23:57:13.820Z,100484.69
2022-09-01T23:59:27.688Z,100468.50
